Time;durP1;ratioP1;P1;durP2;ratioP2;P2;SDS_P1;SDS_P2;PMS_P1;PMS_P2;Temp;Humidity;BMP_temperature;BMP_pressure;BME280_temperature;BME280_humidity;BME280_pressure;Samples;Min_cycle;Max_cycle;Signal;HPM_P1;HPM_P2
2022/05/09 00:01:23;;;;;;;9.55;5.47;;;;;;;16.01;57.58;100733.13;1779920;80;21072;-54
2022/05/09 00:03:51;;;;;;;10.63;5.20;;;;;;;15.98;57.93;100734.96;1779715;80;21136;-55
2022/05/09 00:06:20;;;;;;;8.78;5.12;;;;;;;15.94;58.17;100729.58;1779610;80;21009;-56
2022/05/09 00:08:51;;;;;;;8.18;4.92;;;;;;;15.89;58.33;100732.17;1779976;80;21069;-54
2022/05/09 00:11:21;;;;;;;7.97;5.03;;;;;;;15.86;58.53;100732.61;1785636;80;21491;-53
2022/05/09 00:13:49;;;;;;;9.73;5.00;;;;;;;15.82;59.03;100734.13;1788080;80;21025;-53
2022/05/09 00:16:21;;;;;;;9.58;5.20;;;;;;;15.79;59.26;100737.34;1788047;80;21498;-55
2022/05/09 00:18:50;;;;;;;16.10;5.22;;;;;;;15.74;59.49;100729.73;1787971;80;21064;-55
2022/05/09 00:21:19;;;;;;;8.25;4.50;;;;;;;15.72;59.63;100737.39;1788069;80;21473;-54
2022/05/09 00:23:49;;;;;;;9.45;4.62;;;;;;;15.67;59.94;100733.08;1788054;80;21175;-54
2022/05/09 00:26:17;;;;;;;9.93;4.45;;;;;;;15.61;60.20;100732.58;1788039;80;21016;-54
2022/05/09 00:28:48;;;;;;;8.58;4.50;;;;;;;15.58;60.38;100729.39;1788051;80;21040;-55
2022/05/09 00:31:16;;;;;;;7.22;4.08;;;;;;;15.54;60.58;100724.28;1788208;80;21080;-55
2022/05/09 00:33:45;;;;;;;6.53;4.00;;;;;;;15.50;60.56;100723.56;1788318;80;21072;-54
2022/05/09 00:36:17;;;;;;;8.88;4.17;;;;;;;15.48;60.66;100725.16;1788264;80;21068;-54
2022/05/09 00:38:45;;;;;;;6.78;3.90;;;;;;;15.46;60.75;100723.16;1788192;80;21005;-55
2022/05/09 00:41:31;;;;;;;7.75;3.85;;;;;;;15.46;60.67;100727.84;1788077;80;21024;-55
2022/05/09 00:44:16;;;;;;;;;;;;;;;15.45;60.57;100728.37;1790819;79;21106;-54
2022/05/09 00:46:48;;;;;;;5.60;3.65;;;;;;;15.46;60.44;100730.59;1787989;80;20196;-54
2022/05/09 00:49:47;;;;;;;5.12;3.30;;;;;;;15.40;60.56;100728.72;1788187;80;20980;-55
2022/05/09 00:52:25;;;;;;;4.67;3.25;;;;;;;15.38;60.48;100730.86;1772323;80;21036;-54
2022/05/09 00:55:06;;;;;;;5.33;3.60;;;;;;;15.33;60.41;100727.91;1788254;80;21032;-57
2022/05/09 00:57:56;;;;;;;5.08;3.30;;;;;;;15.30;60.47;100736.11;1788120;79;21059;-55
2022/05/09 01:00:26;;;;;;;6.17;3.15;;;;;;;15.28;60.48;100736.86;1787956;80;21502;-54
2022/05/09 01:03:02;;;;;;;6.47;3.30;;;;;;;15.26;60.46;100738.99;1788085;79;21059;-54
2022/05/09 01:05:32;;;;;;;5.97;2.95;;;;;;;15.26;60.52;100739.53;1792042;79;21039;-55
2022/05/09 01:08:01;;;;;;;3.80;2.62;;;;;;;15.21;60.61;100740.19;1789011;79;21601;-56
2022/05/09 01:10:33;;;;;;;3.62;2.70;;;;;;;15.18;60.68;100738.72;1788879;79;21029;-55
2022/05/09 01:13:07;;;;;;;4.17;2.80;;;;;;;15.16;60.80;100740.00;1775326;79;21013;-55
2022/05/09 01:15:36;;;;;;;4.40;2.80;;;;;;;15.11;60.92;100742.03;1774348;80;21422;-55
2022/05/09 01:18:07;;;;;;;4.53;2.83;;;;;;;15.10;61.08;100747.78;1774319;80;21014;-55
2022/05/09 01:20:37;;;;;;;3.72;2.40;;;;;;;15.08;61.25;100744.39;1774277;81;21084;-55
2022/05/09 01:23:08;;;;;;;3.52;2.52;;;;;;;15.07;61.34;100745.45;1774264;81;21496;-53
2022/05/09 01:25:38;;;;;;;4.17;2.40;;;;;;;15.04;61.51;100748.66;1774080;81;21029;-53
2022/05/09 01:28:07;;;;;;;4.67;2.50;;;;;;;15.04;61.58;100745.36;1752811;81;21013;-55
2022/05/09 01:30:56;;;;;;;5.00;2.80;;;;;;;15.05;61.70;100753.95;1774303;81;21022;-54
2022/05/09 01:33:30;;;;;;;6.25;2.80;;;;;;;15.05;61.83;100747.59;1774408;81;21021;-54
2022/05/09 01:36:06;;;;;;;7.05;3.12;;;;;;;15.05;61.94;100750.34;1774293;80;21014;-54
2022/05/09 01:38:45;;;;;;;5.72;3.37;;;;;;;15.03;62.07;100763.52;1774257;80;21446;-55
2022/05/09 01:41:14;;;;;;;4.55;2.70;;;;;;;14.98;62.15;100755.89;1774238;81;20990;-54
2022/05/09 01:43:51;;;;;;;9.23;3.47;;;;;;;14.94;62.46;100763.41;1774216;81;21025;-53
2022/05/09 01:46:25;;;;;;;10.50;4.60;;;;;;;14.89;62.63;100770.96;1774196;80;21005;-54
2022/05/09 01:51:44;;;;;;;13.45;5.72;;;;;;;14.84;62.90;100770.23;1774414;81;21029;-55
2022/05/09 01:54:13;;;;;;;10.70;5.97;;;;;;;14.79;63.17;100772.80;1774182;81;21037;-54
2022/05/09 01:56:42;;;;;;;12.55;5.67;;;;;;;14.76;63.53;100782.03;1774123;81;21507;-54
2022/05/09 01:59:12;;;;;;;14.40;6.05;;;;;;;14.72;63.93;100777.48;1773970;81;21037;-55
2022/05/09 02:01:54;;;;;;;13.25;6.20;;;;;;;14.69;64.46;100778.45;1774152;81;21017;-54
2022/05/09 02:04:24;;;;;;;14.10;6.15;;;;;;;14.66;65.11;100785.23;1774254;81;21053;-53
2022/05/09 02:06:55;;;;;;;12.55;5.90;;;;;;;14.63;65.44;100788.42;1774163;81;21012;-53
2022/05/09 02:09:24;;;;;;;13.15;6.20;;;;;;;14.60;65.78;100784.72;1774115;80;21057;-55
2022/05/09 02:11:53;;;;;;;15.30;6.08;;;;;;;14.57;65.81;100782.39;1777871;80;21029;-55
2022/05/09 02:14:22;;;;;;;12.75;6.22;;;;;;;14.56;65.88;100784.30;1779526;80;21049;-53
2022/05/09 02:16:51;;;;;;;11.78;5.33;;;;;;;14.53;65.97;100792.16;1779799;80;20993;-53
2022/05/09 02:19:20;;;;;;;11.35;5.65;;;;;;;14.47;66.24;100794.39;1779628;80;20985;-55
2022/05/09 02:21:49;;;;;;;13.40;5.42;;;;;;;14.43;66.45;100799.48;1779793;80;21025;-53
2022/05/09 02:24:18;;;;;;;12.73;5.50;;;;;;;14.42;66.56;100791.39;1779670;80;21017;-55
2022/05/09 02:26:47;;;;;;;14.95;5.83;;;;;;;14.40;66.80;100794.36;1779479;80;21069;-54
2022/05/09 02:29:17;;;;;;;12.88;4.97;;;;;;;14.36;67.02;100799.98;1779691;80;21056;-54
2022/05/09 02:31:47;;;;;;;11.83;5.58;;;;;;;14.36;67.24;100801.36;1779840;80;21516;-52
2022/05/09 02:34:16;;;;;;;12.47;5.60;;;;;;;14.37;67.31;100808.57;1779793;80;21072;-55
2022/05/09 02:36:45;;;;;;;11.75;5.65;;;;;;;14.38;67.32;100804.76;1779755;80;20974;-54
2022/05/09 02:39:13;;;;;;;12.33;5.08;;;;;;;14.40;67.40;100810.05;1779708;80;21045;-53
2022/05/09 02:41:42;;;;;;;8.65;4.53;;;;;;;14.38;67.70;100814.41;1779671;80;21009;-53
2022/05/09 02:44:12;;;;;;;8.68;4.15;;;;;;;14.33;67.97;100821.09;1779731;80;21511;-53
2022/05/09 02:46:43;;;;;;;8.08;4.05;;;;;;;14.32;68.15;100822.14;1779555;80;21492;-53
2022/05/09 02:49:13;;;;;;;7.37;4.17;;;;;;;14.31;68.41;100816.84;1779543;80;21045;-55
2022/05/09 02:51:41;;;;;;;8.10;3.70;;;;;;;14.29;68.65;100824.77;1779761;80;21052;-53
2022/05/09 02:54:12;;;;;;;7.03;3.50;;;;;;;14.28;68.94;100823.59;1779621;80;21081;-54
2022/05/09 02:56:41;;;;;;;9.98;3.77;;;;;;;14.27;69.14;100828.27;1779539;80;21013;-55
2022/05/09 02:59:10;;;;;;;7.15;3.22;;;;;;;14.28;69.30;100827.20;1779484;80;21060;-54
2022/05/09 03:01:38;;;;;;;8.55;3.75;;;;;;;14.29;69.59;100828.90;1779793;80;21076;-54
2022/05/09 03:06:59;;;;;;;6.35;2.90;;;;;;;14.23;70.16;100840.77;1779436;80;21080;-55
2022/05/09 03:09:28;;;;;;;7.53;3.35;;;;;;;14.23;70.37;100847.66;1779597;80;21021;-55
2022/05/09 03:11:57;;;;;;;5.67;2.90;;;;;;;14.25;70.53;100848.83;1784081;80;21594;-53
2022/05/09 03:14:26;;;;;;;6.05;2.92;;;;;;;14.25;70.72;100849.67;1788281;80;20993;-54
2022/05/09 03:16:55;;;;;;;7.62;3.20;;;;;;;14.26;70.85;100851.38;1788012;80;21013;-53
2022/05/09 03:19:27;;;;;;;5.22;3.10;;;;;;;14.29;70.88;100850.10;1788035;80;20993;-54
2022/05/09 03:21:56;;;;;;;7.58;3.35;;;;;;;14.32;70.92;100851.09;1787854;80;21180;-53
2022/05/09 03:24:24;;;;;;;6.78;3.00;;;;;;;14.33;70.94;100860.21;1787793;80;21017;-55
2022/05/09 03:26:55;;;;;;;6.53;3.27;;;;;;;14.33;71.05;100865.19;1788077;80;21515;-55
2022/05/09 03:29:25;;;;;;;6.60;3.05;;;;;;;14.35;71.17;100867.73;1787330;80;21012;-54
2022/05/09 03:31:54;;;;;;;6.42;3.22;;;;;;;14.35;71.38;100862.23;1788216;80;21055;-54
2022/05/09 03:34:23;;;;;;;5.42;2.60;;;;;;;14.31;71.55;100870.07;1787697;80;21191;-56
2022/05/09 03:36:52;;;;;;;6.28;2.87;;;;;;;14.32;71.67;100873.67;1787765;80;21048;-55
2022/05/09 03:39:22;;;;;;;6.22;2.92;;;;;;;14.33;71.76;100875.38;1787849;80;21483;-54
2022/05/09 03:41:51;;;;;;;5.70;2.80;;;;;;;14.34;71.78;100883.95;1788185;80;21032;-54
2022/05/09 03:44:20;;;;;;;5.30;2.67;;;;;;;14.34;71.85;100875.69;1788110;80;21052;-55
2022/05/09 03:46:48;;;;;;;4.67;2.90;;;;;;;14.35;71.86;100879.61;1787837;80;21052;-56
2022/05/09 03:49:19;;;;;;;3.83;2.50;;;;;;;14.34;72.00;100883.95;1787780;80;21566;-54
2022/05/09 03:51:48;;;;;;;6.80;2.65;;;;;;;14.34;72.05;100886.19;1788137;80;21040;-56
2022/05/09 03:54:17;;;;;;;4.75;2.47;;;;;;;14.36;72.11;100883.22;1759809;80;21067;-55
2022/05/09 03:56:46;;;;;;;5.37;2.60;;;;;;;14.34;72.06;100894.45;1787909;80;21017;-54
2022/05/09 03:59:15;;;;;;;4.70;2.22;;;;;;;14.35;72.08;100887.89;1787949;80;21012;-55
2022/05/09 04:01:44;;;;;;;3.33;2.10;;;;;;;14.39;71.97;100897.96;1787850;80;21013;-56
2022/05/09 04:04:14;;;;;;;4.90;2.20;;;;;;;14.43;71.80;100899.27;1788143;80;20997;-55
2022/05/09 04:06:43;;;;;;;5.28;2.08;;;;;;;14.46;71.69;100897.47;1788013;80;21036;-55
2022/05/09 04:09:11;;;;;;;4.50;1.70;;;;;;;14.48;71.40;100906.38;1787720;80;21453;-57
2022/05/09 04:11:42;;;;;;;2.27;1.95;;;;;;;14.48;71.14;100907.76;1783644;80;21055;-53
2022/05/09 04:14:10;;;;;;;2.40;1.80;;;;;;;14.46;71.04;100911.25;1774204;81;21080;-54
2022/05/09 04:16:52;;;;;;;3.22;1.85;;;;;;;14.47;71.02;100914.33;1774366;80;21096;-54
2022/05/09 04:19:21;;;;;;;3.85;1.90;;;;;;;14.48;70.92;100914.13;1774563;81;21442;-55
2022/05/09 04:21:52;;;;;;;2.95;1.80;;;;;;;14.49;70.80;100917.73;1774315;81;21436;-55
2022/05/09 04:24:21;;;;;;;2.92;1.90;;;;;;;14.52;70.60;100924.20;1774149;80;21061;-53
2022/05/09 04:26:50;;;;;;;3.47;1.80;;;;;;;14.53;70.45;100924.52;1773911;81;21013;-54
2022/05/09 04:29:19;;;;;;;4.22;2.12;;;;;;;14.49;70.30;100921.87;1774080;81;21025;-54
2022/05/09 04:31:48;;;;;;;3.12;2.27;;;;;;;14.47;70.26;100919.31;1774410;81;21064;-54
2022/05/09 04:34:17;;;;;;;2.27;1.92;;;;;;;14.51;70.14;100929.39;1774196;81;21124;-56
2022/05/09 04:36:46;;;;;;;3.22;1.82;;;;;;;14.53;70.08;100930.03;1774202;81;21072;-55
2022/05/09 04:39:16;;;;;;;3.47;2.30;;;;;;;14.52;70.16;100933.85;1774269;81;21406;-56
2022/05/09 04:41:45;;;;;;;3.70;2.05;;;;;;;14.51;70.13;100941.28;1774479;80;21033;-54
2022/05/09 04:44:15;;;;;;;3.95;2.10;;;;;;;14.50;69.96;100944.24;1774004;80;21030;-55
2022/05/09 04:46:45;;;;;;;4.25;2.20;;;;;;;14.49;69.76;100948.91;1774176;81;21477;-54
2022/05/09 04:49:15;;;;;;;4.62;2.10;;;;;;;14.49;69.44;100953.05;1774164;81;21434;-55
2022/05/09 04:51:44;;;;;;;3.33;2.30;;;;;;;14.49;69.38;100968.74;1774238;81;21755;-56
2022/05/09 04:54:14;;;;;;;2.65;2.17;;;;;;;14.47;69.27;100964.81;1774012;81;21052;-55
2022/05/09 04:56:43;;;;;;;4.42;2.47;;;;;;;14.46;69.22;100968.63;1774459;80;21057;-55
2022/05/09 04:59:13;;;;;;;7.22;2.30;;;;;;;14.44;68.96;100962.48;1774462;81;21021;-57
2022/05/09 05:01:44;;;;;;;3.45;2.00;;;;;;;14.42;68.89;100969.23;1773816;81;21519;-54
2022/05/09 05:04:14;;;;;;;3.35;2.00;;;;;;;14.44;68.96;100983.69;1774269;80;21025;-60
2022/05/09 05:06:45;;;;;;;17.37;2.67;;;;;;;14.49;68.79;100973.73;1717929;83;21540;-54
2022/05/09 05:09:14;;;;;;;3.15;2.00;;;;;;;14.61;68.02;100975.34;1717824;83;21071;-56
2022/05/09 05:11:43;;;;;;;8.18;2.20;;;;;;;14.71;67.16;100988.19;1717869;83;21086;-53
2022/05/09 05:14:12;;;;;;;4.75;1.90;;;;;;;14.74;66.14;100986.38;1634763;88;21101;-56
2022/05/09 05:16:59;;;;;;;2.42;2.08;;;;;;;14.74;65.81;100997.95;1634717;88;21092;-56
2022/05/09 05:19:35;;;;;;;6.17;2.00;;;;;;;14.70;65.79;100998.90;1634726;88;21070;-56
2022/05/09 05:22:05;;;;;;;3.52;1.98;;;;;;;14.68;65.60;100998.27;1634811;87;21089;-53
2022/05/09 05:24:37;;;;;;;3.45;1.85;;;;;;;14.71;65.18;101019.91;1654440;85;21092;-53
2022/05/09 05:27:06;;;;;;;6.87;2.30;;;;;;;14.77;65.14;101009.41;1689175;85;21090;-54
2022/05/09 05:29:35;;;;;;;3.92;2.08;;;;;;;14.91;64.72;101009.74;1689095;85;21114;-54
2022/05/09 05:32:21;;;;;;;2.17;1.98;;;;;;;14.99;64.24;101008.72;1689230;85;21093;-54
2022/05/09 05:34:50;;;;;;;3.58;2.10;;;;;;;15.03;63.80;101008.61;1688831;85;21078;-55
2022/05/09 05:37:19;;;;;;;2.15;1.82;;;;;;;15.01;63.18;101008.50;1688846;85;21483;-55
2022/05/09 05:39:48;;;;;;;2.92;1.92;;;;;;;14.99;62.94;101003.20;1765252;81;21512;-55
2022/05/09 05:42:18;;;;;;;4.05;1.85;;;;;;;14.91;62.42;101006.13;1774129;81;21013;-54
2022/05/09 05:44:48;;;;;;;4.53;1.82;;;;;;;14.83;62.61;101011.33;1774094;80;21072;-55
2022/05/09 05:47:18;;;;;;;2.35;1.90;;;;;;;14.76;62.75;101024.27;1774161;81;21044;-55
2022/05/09 05:49:47;;;;;;;3.85;2.08;;;;;;;14.70;63.04;101016.83;1774578;81;21072;-55
2022/05/09 05:52:17;;;;;;;4.00;1.82;;;;;;;14.74;63.06;101019.48;1774013;81;21021;-55
2022/05/09 05:54:46;;;;;;;2.42;1.70;;;;;;;14.74;62.69;101019.48;1773876;81;21041;-55
2022/05/09 05:57:25;;;;;;;2.33;1.90;;;;;;;14.77;62.69;101027.34;1774221;80;21475;-54
2022/05/09 06:00:02;;;;;;;3.10;1.80;;;;;;;14.77;61.95;101035.62;1775052;79;21127;-57
2022/05/09 06:02:32;;;;;;;3.85;1.95;;;;;;;14.72;61.68;101031.79;1775841;79;21049;-57
2022/05/09 06:05:01;;;;;;;3.42;1.62;;;;;;;14.69;61.44;101041.34;1791754;79;21503;-56
2022/05/09 06:07:30;;;;;;;4.17;2.20;;;;;;;14.71;60.93;101039.22;1806064;79;21436;-54
2022/05/09 06:09:59;;;;;;;3.02;1.70;;;;;;;14.70;60.88;101036.67;1806413;79;20999;-55
2022/05/09 06:12:29;;;;;;;2.83;1.60;;;;;;;14.74;60.42;101042.09;1805935;79;20980;-55
2022/05/09 06:17:47;;;;;;;2.98;1.70;;;;;;;14.82;58.94;101046.87;1805975;79;21417;-55
2022/05/09 06:20:16;;;;;;;5.58;1.55;;;;;;;14.92;58.56;101053.36;1806099;79;21027;-54
2022/05/09 06:22:45;;;;;;;2.85;1.80;;;;;;;14.98;58.07;101045.66;1806130;79;21053;-55
2022/05/09 06:25:17;;;;;;;1.70;1.50;;;;;;;15.03;57.72;101061.58;1806221;79;21043;-55
2022/05/09 06:27:47;;;;;;;3.77;1.62;;;;;;;15.09;57.21;101053.84;1806023;79;21043;-54
2022/05/09 06:30:18;;;;;;;2.20;1.40;;;;;;;15.23;57.26;101050.02;1806117;79;21032;-54
2022/05/09 06:32:47;;;;;;;3.30;1.60;;;;;;;15.59;56.34;101051.51;1806011;79;21184;-54
2022/05/09 06:35:23;;;;;;;2.58;1.50;;;;;;;16.00;55.15;101056.23;1806067;79;21008;-54
2022/05/09 06:37:59;;;;;;;3.08;1.70;;;;;;;16.39;53.93;101051.10;1806065;79;21530;-58
2022/05/09 06:40:29;;;;;;;1.90;1.20;;;;;;;16.60;53.39;101052.69;1806217;79;21011;-56
2022/05/09 06:42:59;;;;;;;3.27;1.50;;;;;;;16.79;52.14;101046.22;1806127;79;20984;-57
2022/05/09 06:45:29;;;;;;;2.80;1.40;;;;;;;17.01;50.85;101056.43;1806072;79;21502;-55
2022/05/09 06:47:58;;;;;;;3.83;1.60;;;;;;;17.19;49.99;101050.65;1806013;79;21027;-55
2022/05/09 06:50:31;;;;;;;2.92;1.85;;;;;;;17.20;50.07;101054.58;1805924;79;21082;-57
2022/05/09 06:53:02;;;;;;;4.50;1.80;;;;;;;17.21;49.89;101066.50;1806060;79;21031;-56
2022/05/09 06:55:32;;;;;;;3.65;1.50;;;;;;;17.32;49.29;101058.84;1804451;79;21432;-57
2022/05/09 06:58:07;;;;;;;2.87;1.30;;;;;;;17.53;47.94;101055.67;1805905;79;21083;-56
2022/05/09 07:00:37;;;;;;;4.87;1.50;;;;;;;17.73;45.40;101068.86;1806335;79;21039;-57
2022/05/09 07:03:06;;;;;;;4.58;1.35;;;;;;;17.95;44.21;101076.20;1805969;79;21446;-56
2022/05/09 07:05:43;;;;;;;2.60;1.20;;;;;;;18.09;43.31;101067.20;1805799;79;21008;-55
2022/05/09 07:08:11;;;;;;;2.62;1.30;;;;;;;18.29;42.30;101073.39;1806004;79;21004;-54
2022/05/09 07:10:43;;;;;;;2.27;1.10;;;;;;;18.57;40.81;101074.20;1805966;79;21019;-56
2022/05/09 07:13:13;;;;;;;4.28;1.30;;;;;;;18.79;40.60;101073.72;1802134;79;21471;-55
2022/05/09 07:15:42;;;;;;;3.45;1.40;;;;;;;18.96;40.02;101086.73;1798594;79;21533;-54
2022/05/09 07:18:12;;;;;;;2.95;1.12;;;;;;;19.34;39.00;101066.05;1798623;80;20984;-55
2022/05/09 07:20:41;;;;;;;2.70;1.30;;;;;;;19.52;37.97;101074.36;1798710;79;21052;-54
2022/05/09 07:23:11;;;;;;;4.00;1.10;;;;;;;19.80;37.14;101077.80;1798876;80;21012;-56
2022/05/09 07:25:40;;;;;;;2.27;1.00;;;;;;;19.98;36.79;101080.16;1798617;80;21012;-57
2022/05/09 07:28:11;;;;;;;4.10;1.05;;;;;;;20.02;36.39;101078.58;1798678;80;21069;-58
2022/05/09 07:30:42;;;;;;;1.57;1.00;;;;;;;20.15;36.30;101074.98;1798831;80;21024;-56
2022/05/09 07:33:18;;;;;;;3.37;1.07;;;;;;;20.44;35.61;101080.67;1798663;80;21485;-54
2022/05/09 07:35:47;;;;;;;3.25;1.00;;;;;;;20.51;35.17;101069.70;1798833;79;21074;-55
2022/05/09 07:38:18;;;;;;;1.57;0.95;;;;;;;20.65;34.15;101082.78;1798888;80;21024;-55
2022/05/09 07:40:47;;;;;;;4.40;1.45;;;;;;;20.60;34.82;101096.60;1798591;80;21060;-57
2022/05/09 07:43:20;;;;;;;1.67;1.22;;;;;;;20.63;34.32;101103.62;1798703;79;21461;-56
2022/05/09 07:45:51;;;;;;;3.00;1.27;;;;;;;20.53;34.45;101096.75;1798622;79;21044;-56
2022/05/09 07:48:22;;;;;;;6.05;1.37;;;;;;;20.57;34.48;101090.98;1798806;80;21012;-55
2022/05/09 07:50:54;;;;;;;3.10;1.20;;;;;;;20.61;34.25;101096.91;1798635;79;21039;-56
2022/05/09 07:53:30;;;;;;;3.33;1.20;;;;;;;20.59;34.13;101094.91;1798773;80;20996;-58
2022/05/09 07:56:06;;;;;;;4.00;1.07;;;;;;;20.71;34.02;101093.48;1798768;80;21040;-57
2022/05/09 07:58:35;;;;;;;4.50;1.25;;;;;;;20.96;33.07;101101.52;1798628;80;21067;-56
2022/05/09 08:01:05;;;;;;;8.33;1.60;;;;;;;21.04;32.44;101097.78;1798006;80;21084;-55
2022/05/09 08:03:37;;;;;;;4.62;1.30;;;;;;;21.04;32.29;101121.47;1798601;80;21039;-57
2022/05/09 08:06:08;;;;;;;3.92;1.20;;;;;;;21.11;33.21;101109.62;1798638;80;21036;-57
2022/05/09 08:08:38;;;;;;;2.58;1.12;;;;;;;21.27;32.95;101101.56;1798664;80;21035;-56
2022/05/09 08:11:11;;;;;;;10.38;1.65;;;;;;;21.42;32.19;101101.84;1798076;80;21009;-56
2022/05/09 08:13:41;;;;;;;5.85;1.40;;;;;;;21.37;32.72;101105.93;1802880;79;21471;-57
2022/05/09 08:16:10;;;;;;;3.95;1.10;;;;;;;21.30;33.14;101111.67;1777252;79;21003;-56
2022/05/09 08:18:40;;;;;;;3.42;1.10;;;;;;;21.25;33.17;101112.97;1774245;81;20984;-57
2022/05/09 08:21:12;;;;;;;1.90;1.00;;;;;;;21.23;32.67;101112.92;1778588;79;21016;-58
2022/05/09 08:23:42;;;;;;;2.75;1.30;;;;;;;21.29;32.93;101111.92;1785889;79;21043;-57
2022/05/09 08:26:11;;;;;;;3.65;1.20;;;;;;;21.41;32.55;101103.78;1798255;79;21004;-58
2022/05/09 08:28:42;;;;;;;4.95;1.40;;;;;;;21.47;32.31;101108.37;1779231;79;21077;-55
2022/05/09 08:31:11;;;;;;;3.37;1.10;;;;;;;21.61;32.36;101120.05;1805937;79;21452;-56
2022/05/09 08:33:41;;;;;;;3.05;1.30;;;;;;;21.64;32.04;101112.56;1805934;79;21425;-55
2022/05/09 08:36:10;;;;;;;3.05;1.45;;;;;;;21.61;32.36;101113.62;1805852;79;21043;-55
2022/05/09 08:38:41;;;;;;;1.30;1.00;;;;;;;21.69;31.86;101120.17;1786298;79;21035;-56
2022/05/09 08:41:13;;;;;;;1.65;0.90;;;;;;;21.83;30.56;101126.55;1774134;81;21023;-55
2022/05/09 08:44:10;;;;;;;5.90;1.50;;;;;;;21.96;30.69;101119.77;1774154;80;21000;-54
2022/05/09 08:47:29;;;;;;;4.12;1.00;;;;;;;22.04;30.36;101122.16;1774581;81;21043;-55
2022/05/09 08:50:25;;;;;;;2.65;1.07;;;;;;;21.93;30.53;101121.67;1773978;80;21055;-61
2022/05/09 08:53:05;;;;;;;3.10;1.20;;;;;;;21.92;30.36;101114.41;1774109;81;21032;-56
2022/05/09 08:55:40;;;;;;;4.37;1.35;;;;;;;22.00;29.66;101120.10;1773915;81;21058;-55
2022/05/09 08:58:39;;;;;;;1.52;0.95;;;;;;;21.93;29.60;101124.47;1754190;81;21018;-57
2022/05/09 09:01:22;;;;;;;1.30;0.90;;;;;;;;;;1774289;81;21006;-56
2022/05/09 09:04:05;;;;;;;1.35;0.90;;;;;;;21.62;29.41;101133.44;1773516;80;21046;-57
2022/05/09 09:07:18;;;;;;;2.45;1.30;;;;;;;21.46;29.62;101137.36;1774094;81;21449;-56
2022/05/09 09:10:10;;;;;;;2.60;1.00;;;;;;;21.10;29.41;101145.55;1773928;80;21492;-55
2022/05/09 09:13:13;;;;;;;2.30;1.10;;;;;;;20.86;29.51;101136.45;1736944;80;21510;-56
2022/05/09 09:16:22;;;;;;;1.22;0.78;;;;;;;20.80;28.89;101130.98;1788010;80;21100;-55
2022/05/09 09:19:47;;;;;;;1.82;1.10;;;;;;;20.66;28.67;101137.39;1787591;80;21474;-55
2022/05/09 09:22:41;;;;;;;4.05;0.80;;;;;;;20.49;28.69;101132.28;1804476;79;20983;-56
2022/05/09 09:25:41;;;;;;;3.58;1.00;;;;;;;20.25;29.06;101149.00;1820322;79;21031;-56
2022/05/09 09:28:15;;;;;;;4.20;1.00;;;;;;;20.12;29.12;101146.43;1820545;79;20995;-55
2022/05/09 09:30:46;;;;;;;2.30;1.20;;;;;;;19.86;29.15;101153.87;1750814;82;21040;-57
2022/05/09 09:33:17;;;;;;;1.30;0.90;;;;;;;19.67;29.24;101147.56;1750774;82;21521;-55
2022/05/09 09:36:08;;;;;;;4.60;1.10;;;;;;;19.61;29.29;101149.91;1769201;81;21010;-55
2022/05/09 09:38:43;;;;;;;3.72;1.62;;;;;;;19.49;29.51;101136.47;1757187;81;21099;-56
2022/05/09 09:41:30;;;;;;;2.45;1.00;;;;;;;19.43;29.28;101139.66;1757497;82;21075;-56
2022/05/09 09:44:19;;;;;;;1.45;0.90;;;;;;;19.52;29.10;101145.23;1757281;81;21067;-57
2022/05/09 09:47:10;;;;;;;6.00;1.17;;;;;;;19.51;29.07;101145.45;1757134;82;21063;-56
2022/05/09 09:49:43;;;;;;;2.77;0.80;;;;;;;19.33;28.83;101145.80;1754645;82;21042;-58
2022/05/09 09:52:22;;;;;;;9.05;1.77;;;;;;;19.15;29.17;101144.47;1757316;82;20991;-56
2022/05/09 09:55:07;;;;;;;5.42;1.45;;;;;;;19.10;29.00;101149.89;1757273;82;21020;-56
2022/05/09 09:57:37;;;;;;;1.42;0.90;;;;;;;18.99;28.13;101142.36;1730364;82;21030;-57
2022/05/09 10:00:29;;;;;;;6.67;1.20;;;;;;;18.93;28.11;101155.80;1757065;82;20999;-56
2022/05/09 10:03:21;;;;;;;8.18;1.75;;;;;;;18.89;28.02;101150.41;1780495;80;21432;-56
2022/05/09 10:05:51;;;;;;;2.75;1.12;;;;;;;18.82;28.41;101154.63;1768471;81;21001;-57
2022/05/09 10:08:37;;;;;;;2.47;1.15;;;;;;;18.87;27.58;101156.73;1756905;82;21118;-57
2022/05/09 10:11:15;;;;;;;2.30;0.90;;;;;;;18.91;27.78;101146.30;1781219;80;21067;-55
2022/05/09 10:13:48;;;;;;;2.52;1.00;;;;;;;18.96;27.22;101159.48;1766082;81;21084;-56
2022/05/09 10:16:45;;;;;;;3.52;0.72;;;;;;;18.86;27.37;101153.11;1806166;79;21040;-56
2022/05/09 10:19:31;;;;;;;2.50;0.75;;;;;;;18.81;27.77;101156.24;1805907;79;21051;-56
2022/05/09 10:25:13;;;;;;;4.10;1.22;;;;;;;18.90;27.11;101145.16;1789252;79;21062;-57
2022/05/09 10:27:44;;;;;;;0.95;0.70;;;;;;;18.81;27.22;101152.92;1785556;79;21020;-57
2022/05/09 10:30:30;;;;;;;3.83;1.07;;;;;;;18.76;26.93;101152.78;1751214;82;21040;-56
2022/05/09 10:33:11;;;;;;;5.17;1.20;;;;;;;18.67;27.22;101148.63;1822254;79;21007;-57
2022/05/09 10:35:53;;;;;;;2.58;0.80;;;;;;;18.64;27.12;101159.66;1822019;79;20999;-57
2022/05/09 10:38:30;;;;;;;2.52;0.70;;;;;;;18.65;27.21;101145.23;1777305;79;21546;-55
2022/05/09 10:41:10;;;;;;;3.10;0.90;;;;;;;18.65;26.44;101143.31;1775597;79;21077;-55
2022/05/09 10:43:45;;;;;;;0.95;0.62;;;;;;;18.66;26.30;101143.61;1773778;79;21440;-57
2022/05/09 10:46:14;;;;;;;3.42;0.68;;;;;;;18.72;26.28;101163.20;1774291;81;21046;-56
2022/05/09 10:48:59;;;;;;;4.15;1.50;;;;;;;18.75;25.97;101141.37;1774195;80;21461;-57
2022/05/09 10:51:56;;;;;;;2.83;0.90;;;;;;;18.72;24.89;101150.70;1772164;81;21064;-54
2022/05/09 10:54:45;;;;;;;2.20;0.70;;;;;;;18.71;25.26;101154.02;1774037;80;21092;-58
2022/05/09 10:57:36;;;;;;;2.80;0.70;;;;;;;18.70;24.74;101148.16;1774268;80;21033;-55
2022/05/09 11:00:19;;;;;;;1.95;0.70;;;;;;;18.69;24.68;101142.30;1773392;80;21469;-57
2022/05/09 11:03:20;;;;;;;2.67;0.65;;;;;;;18.64;24.57;101148.55;1774148;81;21529;-56
2022/05/09 11:06:18;;;;;;;2.55;0.90;;;;;;;18.63;24.73;101144.08;1774247;81;21079;-56
2022/05/09 11:09:04;;;;;;;4.05;0.82;;;;;;;18.61;25.46;101146.75;1774314;80;21041;-58
2022/05/09 11:12:16;;;;;;;2.72;0.70;;;;;;;18.63;25.08;101142.70;1774307;80;21096;-56
2022/05/09 11:15:06;;;;;;;2.25;0.70;;;;;;;18.68;25.32;101148.94;1774351;80;21088;-56
2022/05/09 11:17:57;;;;;;;3.15;0.93;;;;;;;18.65;25.57;101160.50;1708970;82;21068;-57
2022/05/09 11:20:50;;;;;;;1.05;0.60;;;;;;;18.55;25.17;101151.84;1774315;81;20981;-57
2022/05/09 11:24:12;;;;;;;1.20;0.70;;;;;;;18.39;25.93;101149.15;1774287;81;21045;-57
2022/05/09 11:27:14;;;;;;;2.33;0.80;;;;;;;18.31;25.94;101141.98;1805559;79;21043;-55
2022/05/09 11:30:22;;;;;;;2.98;0.90;;;;;;;18.24;25.73;101139.81;1811713;79;21011;-55
2022/05/09 11:33:07;;;;;;;2.90;0.90;;;;;;;18.19;25.38;101148.48;1820777;79;21050;-56
2022/05/09 11:35:37;;;;;;;1.00;0.70;;;;;;;18.17;25.59;101146.48;1812627;79;21047;-55
2022/05/09 11:38:24;;;;;;;1.95;0.85;;;;;;;18.14;25.71;101148.33;1822110;79;20999;-56
2022/05/09 11:41:24;;;;;;;0.62;0.62;;;;;;;18.14;25.96;101147.79;1822467;79;20979;-55
2022/05/09 11:44:20;;;;;;;1.00;0.68;;;;;;;18.14;25.43;101139.47;1822069;78;20971;-56
2022/05/09 11:47:22;;;;;;;1.47;0.70;;;;;;;18.07;25.73;101145.63;1807081;79;21581;-55
2022/05/09 11:50:18;;;;;;;1.22;0.60;;;;;;;18.06;25.54;101136.45;1822188;79;20999;-56
2022/05/09 11:52:48;;;;;;;1.55;0.60;;;;;;;18.01;25.55;101130.75;1822040;79;21597;-57
2022/05/09 11:55:21;;;;;;;1.22;0.70;;;;;;;18.02;25.58;101136.60;1822250;79;21105;-58
2022/05/09 11:57:56;;;;;;;5.25;0.88;;;;;;;18.05;25.06;101137.53;1822143;79;21482;-56
2022/05/09 12:00:37;;;;;;;3.10;0.90;;;;;;;18.12;24.16;101138.00;1801046;79;21042;-56
2022/05/09 12:03:10;;;;;;;3.72;0.90;;;;;;;18.17;23.74;101143.71;1774086;81;21046;-55
2022/05/09 12:06:01;;;;;;;4.17;0.80;;;;;;;18.19;23.41;101147.95;1737568;82;21020;-56
2022/05/09 12:08:45;;;;;;;2.12;0.80;;;;;;;18.20;23.64;101146.02;1774284;80;21125;-58
2022/05/09 12:11:32;;;;;;;4.37;0.70;;;;;;;18.18;24.28;101146.25;1774269;80;21010;-57
2022/05/09 12:14:02;;;;;;;3.00;0.80;;;;;;;18.23;23.90;101132.57;1772668;79;20999;-56